sensor_id;sensor_type;location;lat;lon;timestamp;P1;durP1;ratioP1;P2;durP2;ratioP2
71726;SDS011;59573;43.486;3.674;2022-12-05T00:01:39;33.28;;;18.60;;
71726;SDS011;59573;43.486;3.674;2022-12-05T00:04:10;22.23;;;13.63;;
71726;SDS011;59573;43.486;3.674;2022-12-05T00:06:37;13.32;;;7.07;;
71726;SDS011;59573;43.486;3.674;2022-12-05T00:09:05;13.20;;;6.85;;
71726;SDS011;59573;43.486;3.674;2022-12-05T00:11:33;12.15;;;6.28;;
71726;SDS011;59573;43.486;3.674;2022-12-05T00:14:01;9.32;;;3.97;;
71726;SDS011;59573;43.486;3.674;2022-12-05T00:16:29;7.18;;;3.00;;
71726;SDS011;59573;43.486;3.674;2022-12-05T00:18:57;42.08;;;20.85;;
71726;SDS011;59573;43.486;3.674;2022-12-05T00:21:24;50.83;;;26.02;;
71726;SDS011;59573;43.486;3.674;2022-12-05T00:23:53;10.70;;;5.00;;
71726;SDS011;59573;43.486;3.674;2022-12-05T00:26:20;6.97;;;3.63;;
71726;SDS011;59573;43.486;3.674;2022-12-05T00:28:46;26.70;;;15.40;;
71726;SDS011;59573;43.486;3.674;2022-12-05T00:31:13;30.73;;;16.15;;
71726;SDS011;59573;43.486;3.674;2022-12-05T00:33:40;22.85;;;13.13;;
71726;SDS011;59573;43.486;3.674;2022-12-05T00:36:07;22.13;;;11.23;;
71726;SDS011;59573;43.486;3.674;2022-12-05T00:38:34;21.25;;;10.38;;
71726;SDS011;59573;43.486;3.674;2022-12-05T00:41:05;8.50;;;4.38;;
71726;SDS011;59573;43.486;3.674;2022-12-05T00:43:32;8.98;;;3.80;;
71726;SDS011;59573;43.486;3.674;2022-12-05T00:46:05;8.85;;;4.13;;
71726;SDS011;59573;43.486;3.674;2022-12-05T00:48:36;6.85;;;3.53;;
71726;SDS011;59573;43.486;3.674;2022-12-05T00:51:06;7.53;;;3.85;;
71726;SDS011;59573;43.486;3.674;2022-12-05T00:53:39;9.30;;;4.40;;
71726;SDS011;59573;43.486;3.674;2022-12-05T00:56:12;10.65;;;6.95;;
71726;SDS011;59573;43.486;3.674;2022-12-05T00:58:40;9.20;;;4.65;;
71726;SDS011;59573;43.486;3.674;2022-12-05T01:03:31;8.85;;;4.28;;
71726;SDS011;59573;43.486;3.674;2022-12-05T01:05:57;8.05;;;4.85;;
71726;SDS011;59573;43.486;3.674;2022-12-05T01:08:23;9.18;;;4.47;;
71726;SDS011;59573;43.486;3.674;2022-12-05T01:10:53;7.68;;;4.18;;
71726;SDS011;59573;43.486;3.674;2022-12-05T01:13:20;8.35;;;4.70;;
71726;SDS011;59573;43.486;3.674;2022-12-05T01:15:46;8.70;;;5.18;;
71726;SDS011;59573;43.486;3.674;2022-12-05T01:18:12;9.82;;;5.70;;
71726;SDS011;59573;43.486;3.674;2022-12-05T01:20:38;11.27;;;6.60;;
71726;SDS011;59573;43.486;3.674;2022-12-05T01:23:04;12.77;;;7.15;;
71726;SDS011;59573;43.486;3.674;2022-12-05T01:25:30;11.10;;;6.75;;
71726;SDS011;59573;43.486;3.674;2022-12-05T01:27:56;10.55;;;6.53;;
71726;SDS011;59573;43.486;3.674;2022-12-05T01:30:21;10.73;;;6.10;;
71726;SDS011;59573;43.486;3.674;2022-12-05T01:32:47;10.20;;;5.82;;
71726;SDS011;59573;43.486;3.674;2022-12-05T01:35:13;11.27;;;6.18;;
71726;SDS011;59573;43.486;3.674;2022-12-05T01:37:39;11.20;;;5.95;;
71726;SDS011;59573;43.486;3.674;2022-12-05T01:40:05;13.02;;;7.15;;
71726;SDS011;59573;43.486;3.674;2022-12-05T01:42:32;13.82;;;7.22;;
71726;SDS011;59573;43.486;3.674;2022-12-05T01:44:59;13.23;;;7.32;;
71726;SDS011;59573;43.486;3.674;2022-12-05T01:47:29;12.38;;;7.32;;
71726;SDS011;59573;43.486;3.674;2022-12-05T01:49:58;10.48;;;5.32;;
71726;SDS011;59573;43.486;3.674;2022-12-05T01:52:25;10.48;;;6.07;;
71726;SDS011;59573;43.486;3.674;2022-12-05T01:54:54;9.95;;;5.50;;
71726;SDS011;59573;43.486;3.674;2022-12-05T01:57:24;7.85;;;3.90;;
71726;SDS011;59573;43.486;3.674;2022-12-05T01:59:50;9.27;;;4.22;;
71726;SDS011;59573;43.486;3.674;2022-12-05T02:02:19;7.03;;;3.53;;
71726;SDS011;59573;43.486;3.674;2022-12-05T02:05:20;7.85;;;4.13;;
71726;SDS011;59573;43.486;3.674;2022-12-05T02:07:43;8.63;;;5.10;;
71726;SDS011;59573;43.486;3.674;2022-12-05T02:10:10;9.50;;;5.03;;
71726;SDS011;59573;43.486;3.674;2022-12-05T02:12:36;8.38;;;4.68;;
71726;SDS011;59573;43.486;3.674;2022-12-05T02:17:50;7.18;;;4.15;;
71726;SDS011;59573;43.486;3.674;2022-12-05T02:31:09;8.05;;;4.40;;
71726;SDS011;59573;43.486;3.674;2022-12-05T02:33:46;8.65;;;4.32;;
71726;SDS011;59573;43.486;3.674;2022-12-05T02:39:11;9.73;;;5.57;;
71726;SDS011;59573;43.486;3.674;2022-12-05T02:44:36;9.07;;;5.55;;
71726;SDS011;59573;43.486;3.674;2022-12-05T02:47:07;7.57;;;4.50;;
71726;SDS011;59573;43.486;3.674;2022-12-05T02:49:34;6.93;;;4.00;;
71726;SDS011;59573;43.486;3.674;2022-12-05T02:52:02;8.93;;;4.25;;
71726;SDS011;59573;43.486;3.674;2022-12-05T02:54:32;11.02;;;6.78;;
71726;SDS011;59573;43.486;3.674;2022-12-05T02:57:02;9.93;;;6.43;;
71726;SDS011;59573;43.486;3.674;2022-12-05T02:59:29;7.53;;;4.18;;
71726;SDS011;59573;43.486;3.674;2022-12-05T03:01:55;8.73;;;4.47;;
71726;SDS011;59573;43.486;3.674;2022-12-05T03:04:21;8.75;;;4.30;;
71726;SDS011;59573;43.486;3.674;2022-12-05T03:06:53;8.20;;;3.97;;
71726;SDS011;59573;43.486;3.674;2022-12-05T03:09:42;8.23;;;4.80;;
71726;SDS011;59573;43.486;3.674;2022-12-05T03:12:12;8.77;;;5.25;;
71726;SDS011;59573;43.486;3.674;2022-12-05T03:14:42;10.82;;;5.53;;
71726;SDS011;59573;43.486;3.674;2022-12-05T03:17:14;16.30;;;9.50;;
71726;SDS011;59573;43.486;3.674;2022-12-05T03:22:16;18.02;;;10.63;;
71726;SDS011;59573;43.486;3.674;2022-12-05T03:24:48;16.52;;;9.85;;
71726;SDS011;59573;43.486;3.674;2022-12-05T03:27:20;15.82;;;9.23;;
71726;SDS011;59573;43.486;3.674;2022-12-05T03:32:29;12.32;;;7.43;;
71726;SDS011;59573;43.486;3.674;2022-12-05T03:43:19;4.60;;;1.83;;
71726;SDS011;59573;43.486;3.674;2022-12-05T03:46:02;4.10;;;1.60;;
71726;SDS011;59573;43.486;3.674;2022-12-05T03:48:32;4.13;;;1.70;;
71726;SDS011;59573;43.486;3.674;2022-12-05T03:51:06;4.78;;;1.70;;
71726;SDS011;59573;43.486;3.674;2022-12-05T03:53:36;3.63;;;1.30;;
71726;SDS011;59573;43.486;3.674;2022-12-05T03:56:08;3.10;;;1.30;;
71726;SDS011;59573;43.486;3.674;2022-12-05T03:58:53;5.30;;;1.70;;
71726;SDS011;59573;43.486;3.674;2022-12-05T04:01:23;4.82;;;1.52;;
71726;SDS011;59573;43.486;3.674;2022-12-05T04:03:54;3.85;;;1.50;;
71726;SDS011;59573;43.486;3.674;2022-12-05T04:06:30;4.72;;;1.50;;
71726;SDS011;59573;43.486;3.674;2022-12-05T04:09:03;4.55;;;1.58;;
71726;SDS011;59573;43.486;3.674;2022-12-05T04:11:33;5.18;;;1.60;;
71726;SDS011;59573;43.486;3.674;2022-12-05T04:14:07;4.22;;;1.67;;
71726;SDS011;59573;43.486;3.674;2022-12-05T04:17:10;5.43;;;1.70;;
71726;SDS011;59573;43.486;3.674;2022-12-05T04:22:23;4.35;;;1.77;;
71726;SDS011;59573;43.486;3.674;2022-12-05T04:24:49;4.03;;;1.52;;
71726;SDS011;59573;43.486;3.674;2022-12-05T04:27:39;5.78;;;1.95;;
71726;SDS011;59573;43.486;3.674;2022-12-05T04:30:22;4.80;;;2.08;;
71726;SDS011;59573;43.486;3.674;2022-12-05T04:33:00;11.40;;;5.35;;
71726;SDS011;59573;43.486;3.674;2022-12-05T04:35:34;12.02;;;6.20;;
71726;SDS011;59573;43.486;3.674;2022-12-05T04:38:26;5.00;;;1.92;;
71726;SDS011;59573;43.486;3.674;2022-12-05T04:41:01;6.53;;;3.30;;
71726;SDS011;59573;43.486;3.674;2022-12-05T04:43:30;11.50;;;6.25;;
71726;SDS011;59573;43.486;3.674;2022-12-05T04:46:01;10.90;;;6.05;;
71726;SDS011;59573;43.486;3.674;2022-12-05T04:48:31;10.30;;;5.50;;
71726;SDS011;59573;43.486;3.674;2022-12-05T04:50:59;8.35;;;4.35;;
71726;SDS011;59573;43.486;3.674;2022-12-05T04:53:28;14.93;;;7.13;;
71726;SDS011;59573;43.486;3.674;2022-12-05T04:55:55;11.95;;;6.13;;
71726;SDS011;59573;43.486;3.674;2022-12-05T04:58:24;7.93;;;4.07;;
71726;SDS011;59573;43.486;3.674;2022-12-05T05:05:53;11.32;;;5.63;;
71726;SDS011;59573;43.486;3.674;2022-12-05T05:08:22;14.30;;;7.72;;
71726;SDS011;59573;43.486;3.674;2022-12-05T05:11:11;13.10;;;7.05;;
71726;SDS011;59573;43.486;3.674;2022-12-05T05:13:46;8.32;;;4.07;;
71726;SDS011;59573;43.486;3.674;2022-12-05T05:16:13;6.50;;;2.60;;
71726;SDS011;59573;43.486;3.674;2022-12-05T05:18:46;6.10;;;3.33;;
71726;SDS011;59573;43.486;3.674;2022-12-05T05:21:33;9.07;;;6.75;;
71726;SDS011;59573;43.486;3.674;2022-12-05T05:24:03;12.38;;;7.15;;
71726;SDS011;59573;43.486;3.674;2022-12-05T05:26:30;8.07;;;4.28;;
71726;SDS011;59573;43.486;3.674;2022-12-05T05:28:59;5.93;;;2.60;;
71726;SDS011;59573;43.486;3.674;2022-12-05T05:31:25;5.57;;;2.80;;
71726;SDS011;59573;43.486;3.674;2022-12-05T05:33:52;7.25;;;3.63;;
71726;SDS011;59573;43.486;3.674;2022-12-05T05:36:20;6.78;;;3.47;;
71726;SDS011;59573;43.486;3.674;2022-12-05T05:38:49;18.17;;;15.57;;
71726;SDS011;59573;43.486;3.674;2022-12-05T05:41:17;9.18;;;4.85;;
71726;SDS011;59573;43.486;3.674;2022-12-05T05:43:51;7.57;;;2.53;;
71726;SDS011;59573;43.486;3.674;2022-12-05T05:46:18;6.00;;;2.58;;
71726;SDS011;59573;43.486;3.674;2022-12-05T05:48:46;5.18;;;2.28;;
71726;SDS011;59573;43.486;3.674;2022-12-05T05:51:12;7.05;;;4.03;;
71726;SDS011;59573;43.486;3.674;2022-12-05T05:53:39;5.80;;;2.67;;
71726;SDS011;59573;43.486;3.674;2022-12-05T05:56:10;6.55;;;2.78;;
71726;SDS011;59573;43.486;3.674;2022-12-05T05:58:38;7.03;;;4.43;;
71726;SDS011;59573;43.486;3.674;2022-12-05T06:01:04;9.55;;;7.43;;
71726;SDS011;59573;43.486;3.674;2022-12-05T06:03:35;9.50;;;6.50;;
71726;SDS011;59573;43.486;3.674;2022-12-05T06:06:03;7.70;;;3.97;;
71726;SDS011;59573;43.486;3.674;2022-12-05T06:08:31;7.05;;;3.67;;
71726;SDS011;59573;43.486;3.674;2022-12-05T06:10:58;7.07;;;3.15;;
71726;SDS011;59573;43.486;3.674;2022-12-05T06:13:24;7.20;;;3.20;;
71726;SDS011;59573;43.486;3.674;2022-12-05T06:15:50;9.00;;;4.55;;
71726;SDS011;59573;43.486;3.674;2022-12-05T06:18:15;8.02;;;3.80;;
71726;SDS011;59573;43.486;3.674;2022-12-05T06:20:41;8.57;;;3.85;;
71726;SDS011;59573;43.486;3.674;2022-12-05T06:23:15;7.70;;;4.30;;
71726;SDS011;59573;43.486;3.674;2022-12-05T06:25:45;12.05;;;4.95;;
71726;SDS011;59573;43.486;3.674;2022-12-05T06:28:15;9.10;;;4.93;;
71726;SDS011;59573;43.486;3.674;2022-12-05T06:30:41;11.15;;;5.25;;
71726;SDS011;59573;43.486;3.674;2022-12-05T06:33:07;10.68;;;6.15;;
71726;SDS011;59573;43.486;3.674;2022-12-05T06:35:33;13.93;;;7.78;;
71726;SDS011;59573;43.486;3.674;2022-12-05T06:37:58;13.02;;;7.50;;
71726;SDS011;59573;43.486;3.674;2022-12-05T06:40:24;12.85;;;7.30;;
71726;SDS011;59573;43.486;3.674;2022-12-05T06:42:50;12.45;;;8.35;;
71726;SDS011;59573;43.486;3.674;2022-12-05T06:45:16;13.90;;;9.07;;
71726;SDS011;59573;43.486;3.674;2022-12-05T06:47:42;16.85;;;10.43;;
71726;SDS011;59573;43.486;3.674;2022-12-05T06:50:08;14.60;;;9.60;;
71726;SDS011;59573;43.486;3.674;2022-12-05T06:52:34;13.65;;;8.52;;
71726;SDS011;59573;43.486;3.674;2022-12-05T06:55:00;12.85;;;8.13;;
71726;SDS011;59573;43.486;3.674;2022-12-05T06:57:28;12.35;;;7.20;;
71726;SDS011;59573;43.486;3.674;2022-12-05T06:59:54;12.50;;;7.05;;
71726;SDS011;59573;43.486;3.674;2022-12-05T07:02:40;17.50;;;9.95;;
71726;SDS011;59573;43.486;3.674;2022-12-05T07:05:07;17.55;;;9.65;;
71726;SDS011;59573;43.486;3.674;2022-12-05T07:07:36;9.48;;;4.78;;
71726;SDS011;59573;43.486;3.674;2022-12-05T07:10:02;10.02;;;5.63;;
71726;SDS011;59573;43.486;3.674;2022-12-05T07:12:30;11.60;;;5.43;;
71726;SDS011;59573;43.486;3.674;2022-12-05T07:14:57;11.13;;;4.68;;
71726;SDS011;59573;43.486;3.674;2022-12-05T07:17:22;8.98;;;4.75;;
71726;SDS011;59573;43.486;3.674;2022-12-05T07:19:48;12.52;;;6.05;;
71726;SDS011;59573;43.486;3.674;2022-12-05T07:22:15;19.48;;;8.25;;
71726;SDS011;59573;43.486;3.674;2022-12-05T07:24:42;16.33;;;9.45;;
71726;SDS011;59573;43.486;3.674;2022-12-05T07:27:09;16.63;;;9.98;;
71726;SDS011;59573;43.486;3.674;2022-12-05T07:29:34;16.27;;;8.88;;
71726;SDS011;59573;43.486;3.674;2022-12-05T07:32:00;15.13;;;7.95;;
71726;SDS011;59573;43.486;3.674;2022-12-05T07:34:26;12.82;;;7.60;;
71726;SDS011;59573;43.486;3.674;2022-12-05T07:36:52;18.67;;;9.75;;
71726;SDS011;59573;43.486;3.674;2022-12-05T07:39:17;18.23;;;8.45;;
71726;SDS011;59573;43.486;3.674;2022-12-05T07:41:43;16.60;;;9.32;;
71726;SDS011;59573;43.486;3.674;2022-12-05T07:44:09;23.80;;;10.82;;
71726;SDS011;59573;43.486;3.674;2022-12-05T07:46:37;11.05;;;4.93;;
71726;SDS011;59573;43.486;3.674;2022-12-05T07:49:03;14.60;;;6.90;;
71726;SDS011;59573;43.486;3.674;2022-12-05T07:51:29;22.88;;;9.77;;
71726;SDS011;59573;43.486;3.674;2022-12-05T07:53:54;9.98;;;4.70;;
71726;SDS011;59573;43.486;3.674;2022-12-05T07:56:22;26.85;;;10.85;;
71726;SDS011;59573;43.486;3.674;2022-12-05T07:58:48;26.70;;;11.60;;
71726;SDS011;59573;43.486;3.674;2022-12-05T08:03:42;14.68;;;6.60;;
71726;SDS011;59573;43.486;3.674;2022-12-05T08:06:09;13.80;;;6.22;;
71726;SDS011;59573;43.486;3.674;2022-12-05T08:08:37;12.65;;;6.13;;
71726;SDS011;59573;43.486;3.674;2022-12-05T08:11:06;13.60;;;6.63;;
71726;SDS011;59573;43.486;3.674;2022-12-05T08:13:34;12.40;;;4.75;;
71726;SDS011;59573;43.486;3.674;2022-12-05T08:16:04;9.88;;;4.35;;
71726;SDS011;59573;43.486;3.674;2022-12-05T08:18:32;9.43;;;4.88;;
71726;SDS011;59573;43.486;3.674;2022-12-05T08:21:05;13.60;;;5.80;;
71726;SDS011;59573;43.486;3.674;2022-12-05T08:23:33;14.77;;;6.45;;
71726;SDS011;59573;43.486;3.674;2022-12-05T08:28:36;12.10;;;6.45;;
71726;SDS011;59573;43.486;3.674;2022-12-05T08:31:23;12.50;;;6.28;;
71726;SDS011;59573;43.486;3.674;2022-12-05T08:33:49;11.07;;;6.20;;
71726;SDS011;59573;43.486;3.674;2022-12-05T08:36:16;9.20;;;5.38;;
71726;SDS011;59573;43.486;3.674;2022-12-05T08:38:43;6.93;;;3.05;;
71726;SDS011;59573;43.486;3.674;2022-12-05T08:41:10;7.85;;;3.40;;
71726;SDS011;59573;43.486;3.674;2022-12-05T08:43:38;8.60;;;3.78;;
71726;SDS011;59573;43.486;3.674;2022-12-05T08:46:04;6.20;;;2.60;;
71726;SDS011;59573;43.486;3.674;2022-12-05T08:48:31;11.50;;;2.60;;
71726;SDS011;59573;43.486;3.674;2022-12-05T08:50:57;9.52;;;4.28;;
71726;SDS011;59573;43.486;3.674;2022-12-05T08:53:24;8.40;;;3.60;;
71726;SDS011;59573;43.486;3.674;2022-12-05T08:55:50;8.20;;;3.75;;
71726;SDS011;59573;43.486;3.674;2022-12-05T08:58:16;11.57;;;5.35;;
71726;SDS011;59573;43.486;3.674;2022-12-05T09:00:42;15.40;;;7.35;;
71726;SDS011;59573;43.486;3.674;2022-12-05T09:03:10;11.20;;;5.05;;
71726;SDS011;59573;43.486;3.674;2022-12-05T09:05:36;10.95;;;4.53;;
71726;SDS011;59573;43.486;3.674;2022-12-05T09:08:02;6.18;;;3.03;;
71726;SDS011;59573;43.486;3.674;2022-12-05T09:10:28;6.07;;;2.95;;
71726;SDS011;59573;43.486;3.674;2022-12-05T09:12:54;7.88;;;3.60;;
71726;SDS011;59573;43.486;3.674;2022-12-05T09:15:20;9.10;;;4.90;;
71726;SDS011;59573;43.486;3.674;2022-12-05T09:17:46;8.45;;;4.05;;
71726;SDS011;59573;43.486;3.674;2022-12-05T09:20:11;7.60;;;3.45;;
71726;SDS011;59573;43.486;3.674;2022-12-05T09:22:38;7.53;;;3.20;;
71726;SDS011;59573;43.486;3.674;2022-12-05T09:25:05;5.60;;;2.58;;
71726;SDS011;59573;43.486;3.674;2022-12-05T09:27:31;6.45;;;3.33;;
71726;SDS011;59573;43.486;3.674;2022-12-05T09:29:57;6.15;;;2.70;;
71726;SDS011;59573;43.486;3.674;2022-12-05T09:32:23;7.60;;;3.60;;
71726;SDS011;59573;43.486;3.674;2022-12-05T09:34:48;7.20;;;2.85;;
71726;SDS011;59573;43.486;3.674;2022-12-05T09:37:14;6.57;;;2.60;;
71726;SDS011;59573;43.486;3.674;2022-12-05T09:39:42;7.47;;;2.97;;
71726;SDS011;59573;43.486;3.674;2022-12-05T09:44:58;7.88;;;3.40;;
71726;SDS011;59573;43.486;3.674;2022-12-05T09:50:18;5.60;;;2.60;;
71726;SDS011;59573;43.486;3.674;2022-12-05T09:55:15;7.85;;;4.00;;
71726;SDS011;59573;43.486;3.674;2022-12-05T09:57:51;6.07;;;3.60;;
71726;SDS011;59573;43.486;3.674;2022-12-05T10:00:21;6.68;;;2.97;;
71726;SDS011;59573;43.486;3.674;2022-12-05T10:06:02;9.50;;;4.32;;
71726;SDS011;59573;43.486;3.674;2022-12-05T10:15:56;14.60;;;6.40;;
71726;SDS011;59573;43.486;3.674;2022-12-05T10:21:01;8.38;;;3.38;;
71726;SDS011;59573;43.486;3.674;2022-12-05T10:26:20;8.88;;;3.90;;
71726;SDS011;59573;43.486;3.674;2022-12-05T10:31:15;6.65;;;3.35;;
71726;SDS011;59573;43.486;3.674;2022-12-05T10:33:46;12.48;;;4.65;;
71726;SDS011;59573;43.486;3.674;2022-12-05T10:36:15;8.88;;;4.50;;
71726;SDS011;59573;43.486;3.674;2022-12-05T10:38:41;12.95;;;6.05;;
71726;SDS011;59573;43.486;3.674;2022-12-05T10:41:10;8.43;;;4.38;;
71726;SDS011;59573;43.486;3.674;2022-12-05T10:43:41;7.95;;;3.10;;
71726;SDS011;59573;43.486;3.674;2022-12-05T10:46:08;9.50;;;3.92;;
71726;SDS011;59573;43.486;3.674;2022-12-05T10:48:37;6.93;;;3.13;;
71726;SDS011;59573;43.486;3.674;2022-12-05T10:51:05;7.70;;;3.42;;
71726;SDS011;59573;43.486;3.674;2022-12-05T10:53:39;8.85;;;4.10;;
71726;SDS011;59573;43.486;3.674;2022-12-05T10:59:08;7.75;;;2.70;;
71726;SDS011;59573;43.486;3.674;2022-12-05T11:01:42;6.45;;;2.80;;
71726;SDS011;59573;43.486;3.674;2022-12-05T11:06:57;13.07;;;3.80;;
71726;SDS011;59573;43.486;3.674;2022-12-05T11:09:36;6.35;;;2.50;;
71726;SDS011;59573;43.486;3.674;2022-12-05T11:14:57;8.30;;;3.38;;
71726;SDS011;59573;43.486;3.674;2022-12-05T11:17:46;7.40;;;3.38;;
71726;SDS011;59573;43.486;3.674;2022-12-05T11:23:14;6.22;;;2.78;;
71726;SDS011;59573;43.486;3.674;2022-12-05T11:25:41;5.85;;;2.70;;
71726;SDS011;59573;43.486;3.674;2022-12-05T11:30:58;6.07;;;2.50;;
71726;SDS011;59573;43.486;3.674;2022-12-05T11:33:59;9.15;;;2.97;;
71726;SDS011;59573;43.486;3.674;2022-12-05T11:36:28;6.97;;;2.95;;
71726;SDS011;59573;43.486;3.674;2022-12-05T11:39:03;5.88;;;2.72;;
71726;SDS011;59573;43.486;3.674;2022-12-05T11:44:20;7.97;;;3.08;;
71726;SDS011;59573;43.486;3.674;2022-12-05T11:50:00;6.07;;;2.15;;
71726;SDS011;59573;43.486;3.674;2022-12-05T12:09:39;7.68;;;3.08;;
71726;SDS011;59573;43.486;3.674;2022-12-05T12:23:48;4.57;;;1.80;;
71726;SDS011;59573;43.486;3.674;2022-12-05T12:31:52;4.22;;;2.00;;
71726;SDS011;59573;43.486;3.674;2022-12-05T12:40:27;3.97;;;1.30;;
71726;SDS011;59573;43.486;3.674;2022-12-05T12:51:51;5.22;;;1.88;;
71726;SDS011;59573;43.486;3.674;2022-12-05T12:57:59;6.30;;;2.00;;
71726;SDS011;59573;43.486;3.674;2022-12-05T13:02:51;5.65;;;1.77;;
71726;SDS011;59573;43.486;3.674;2022-12-05T13:05:44;5.28;;;2.20;;
71726;SDS011;59573;43.486;3.674;2022-12-05T13:08:28;6.13;;;2.30;;
71726;SDS011;59573;43.486;3.674;2022-12-05T13:11:05;6.63;;;2.20;;
71726;SDS011;59573;43.486;3.674;2022-12-05T13:13:34;5.68;;;2.28;;
71726;SDS011;59573;43.486;3.674;2022-12-05T13:16:04;6.35;;;2.22;;
71726;SDS011;59573;43.486;3.674;2022-12-05T13:18:36;4.70;;;1.70;;
71726;SDS011;59573;43.486;3.674;2022-12-05T13:21:05;6.28;;;2.42;;
71726;SDS011;59573;43.486;3.674;2022-12-05T13:23:33;7.70;;;2.13;;
71726;SDS011;59573;43.486;3.674;2022-12-05T13:26:09;6.43;;;2.28;;
71726;SDS011;59573;43.486;3.674;2022-12-05T13:29:13;6.80;;;2.50;;
71726;SDS011;59573;43.486;3.674;2022-12-05T13:31:36;5.35;;;2.38;;
71726;SDS011;59573;43.486;3.674;2022-12-05T13:34:03;6.95;;;2.42;;
71726;SDS011;59573;43.486;3.674;2022-12-05T13:36:37;7.30;;;2.72;;
71726;SDS011;59573;43.486;3.674;2022-12-05T13:39:23;5.93;;;2.60;;
71726;SDS011;59573;43.486;3.674;2022-12-05T13:50:08;4.88;;;1.98;;
71726;SDS011;59573;43.486;3.674;2022-12-05T13:52:48;5.40;;;2.30;;
71726;SDS011;59573;43.486;3.674;2022-12-05T14:00:44;6.38;;;2.15;;
71726;SDS011;59573;43.486;3.674;2022-12-05T14:03:16;6.03;;;2.20;;
71726;SDS011;59573;43.486;3.674;2022-12-05T14:06:27;5.80;;;1.80;;
71726;SDS011;59573;43.486;3.674;2022-12-05T14:09:47;6.80;;;3.10;;
71726;SDS011;59573;43.486;3.674;2022-12-05T14:19:50;4.88;;;2.08;;
71726;SDS011;59573;43.486;3.674;2022-12-05T14:25:12;7.90;;;3.80;;
71726;SDS011;59573;43.486;3.674;2022-12-05T14:33:32;5.88;;;2.58;;
71726;SDS011;59573;43.486;3.674;2022-12-05T14:36:03;6.18;;;2.35;;
71726;SDS011;59573;43.486;3.674;2022-12-05T14:38:32;6.25;;;2.70;;
71726;SDS011;59573;43.486;3.674;2022-12-05T14:41:13;5.30;;;2.17;;
71726;SDS011;59573;43.486;3.674;2022-12-05T14:43:50;5.80;;;2.03;;
71726;SDS011;59573;43.486;3.674;2022-12-05T14:46:24;5.25;;;2.20;;
71726;SDS011;59573;43.486;3.674;2022-12-05T14:48:52;6.50;;;2.50;;
71726;SDS011;59573;43.486;3.674;2022-12-05T14:53:55;5.78;;;2.60;;
71726;SDS011;59573;43.486;3.674;2022-12-05T14:56:38;6.10;;;2.53;;
71726;SDS011;59573;43.486;3.674;2022-12-05T15:01:54;7.97;;;2.30;;
71726;SDS011;59573;43.486;3.674;2022-12-05T15:04:30;8.27;;;3.08;;
71726;SDS011;59573;43.486;3.674;2022-12-05T15:07:08;7.10;;;2.78;;
71726;SDS011;59573;43.486;3.674;2022-12-05T15:12:18;6.40;;;3.20;;
71726;SDS011;59573;43.486;3.674;2022-12-05T15:14:57;7.47;;;2.92;;
71726;SDS011;59573;43.486;3.674;2022-12-05T15:17:25;5.40;;;2.22;;
71726;SDS011;59573;43.486;3.674;2022-12-05T15:19:58;8.63;;;4.63;;
71726;SDS011;59573;43.486;3.674;2022-12-05T15:22:31;8.82;;;4.82;;
71726;SDS011;59573;43.486;3.674;2022-12-05T15:28:00;10.60;;;4.75;;
71726;SDS011;59573;43.486;3.674;2022-12-05T15:30:41;9.07;;;4.72;;
71726;SDS011;59573;43.486;3.674;2022-12-05T15:33:10;11.40;;;5.95;;
71726;SDS011;59573;43.486;3.674;2022-12-05T15:35:37;12.25;;;6.70;;
71726;SDS011;59573;43.486;3.674;2022-12-05T15:38:06;11.73;;;6.00;;
71726;SDS011;59573;43.486;3.674;2022-12-05T15:40:44;10.35;;;4.22;;
71726;SDS011;59573;43.486;3.674;2022-12-05T15:46:37;7.20;;;3.75;;
71726;SDS011;59573;43.486;3.674;2022-12-05T15:48:55;7.95;;;3.25;;
71726;SDS011;59573;43.486;3.674;2022-12-05T15:51:27;7.93;;;4.10;;
71726;SDS011;59573;43.486;3.674;2022-12-05T15:54:08;11.23;;;5.60;;
71726;SDS011;59573;43.486;3.674;2022-12-05T15:57:00;11.68;;;6.43;;
71726;SDS011;59573;43.486;3.674;2022-12-05T15:59:38;13.55;;;6.63;;
71726;SDS011;59573;43.486;3.674;2022-12-05T16:02:11;12.97;;;7.13;;
71726;SDS011;59573;43.486;3.674;2022-12-05T16:04:50;10.05;;;5.63;;
71726;SDS011;59573;43.486;3.674;2022-12-05T16:07:20;15.18;;;6.15;;
71726;SDS011;59573;43.486;3.674;2022-12-05T16:09:49;12.65;;;6.82;;
71726;SDS011;59573;43.486;3.674;2022-12-05T16:12:52;11.65;;;7.47;;
71726;SDS011;59573;43.486;3.674;2022-12-05T16:17:55;20.77;;;11.38;;
71726;SDS011;59573;43.486;3.674;2022-12-05T16:22:54;19.40;;;11.10;;
71726;SDS011;59573;43.486;3.674;2022-12-05T16:25:26;19.20;;;12.18;;
71726;SDS011;59573;43.486;3.674;2022-12-05T16:27:58;45.78;;;32.15;;
71726;SDS011;59573;43.486;3.674;2022-12-05T16:30:39;14.00;;;9.88;;
71726;SDS011;59573;43.486;3.674;2022-12-05T16:33:14;11.43;;;6.60;;
71726;SDS011;59573;43.486;3.674;2022-12-05T16:35:41;15.35;;;11.40;;
71726;SDS011;59573;43.486;3.674;2022-12-05T16:48:37;10.32;;;5.25;;
71726;SDS011;59573;43.486;3.674;2022-12-05T16:53:39;13.75;;;6.97;;
71726;SDS011;59573;43.486;3.674;2022-12-05T16:56:08;13.88;;;6.70;;
71726;SDS011;59573;43.486;3.674;2022-12-05T16:58:40;11.70;;;5.60;;
71726;SDS011;59573;43.486;3.674;2022-12-05T17:01:11;12.55;;;6.32;;
71726;SDS011;59573;43.486;3.674;2022-12-05T17:03:41;12.25;;;5.72;;
71726;SDS011;59573;43.486;3.674;2022-12-05T17:06:07;13.98;;;7.40;;
71726;SDS011;59573;43.486;3.674;2022-12-05T17:08:33;16.77;;;7.53;;
71726;SDS011;59573;43.486;3.674;2022-12-05T17:10:59;16.50;;;8.60;;
71726;SDS011;59573;43.486;3.674;2022-12-05T17:13:27;14.90;;;7.85;;
71726;SDS011;59573;43.486;3.674;2022-12-05T17:15:54;14.57;;;7.25;;
71726;SDS011;59573;43.486;3.674;2022-12-05T17:18:20;17.73;;;10.43;;
71726;SDS011;59573;43.486;3.674;2022-12-05T17:20:50;14.50;;;8.55;;
71726;SDS011;59573;43.486;3.674;2022-12-05T17:23:18;16.13;;;9.98;;
71726;SDS011;59573;43.486;3.674;2022-12-05T17:25:48;23.45;;;13.30;;
71726;SDS011;59573;43.486;3.674;2022-12-05T17:28:21;24.67;;;14.45;;
71726;SDS011;59573;43.486;3.674;2022-12-05T17:30:48;34.10;;;19.63;;
71726;SDS011;59573;43.486;3.674;2022-12-05T17:33:15;29.10;;;17.67;;
71726;SDS011;59573;43.486;3.674;2022-12-05T17:35:42;29.63;;;18.67;;
71726;SDS011;59573;43.486;3.674;2022-12-05T17:38:09;32.60;;;18.50;;
71726;SDS011;59573;43.486;3.674;2022-12-05T17:40:35;25.77;;;16.77;;
71726;SDS011;59573;43.486;3.674;2022-12-05T17:43:02;20.92;;;14.98;;
71726;SDS011;59573;43.486;3.674;2022-12-05T17:45:28;18.88;;;13.02;;
71726;SDS011;59573;43.486;3.674;2022-12-05T17:47:54;19.88;;;12.93;;
71726;SDS011;59573;43.486;3.674;2022-12-05T17:50:21;20.20;;;15.25;;
71726;SDS011;59573;43.486;3.674;2022-12-05T17:52:48;19.75;;;13.65;;
71726;SDS011;59573;43.486;3.674;2022-12-05T17:55:15;20.42;;;15.00;;
71726;SDS011;59573;43.486;3.674;2022-12-05T17:57:44;21.58;;;14.43;;
71726;SDS011;59573;43.486;3.674;2022-12-05T18:00:11;19.70;;;12.35;;
71726;SDS011;59573;43.486;3.674;2022-12-05T18:02:38;18.23;;;11.52;;
71726;SDS011;59573;43.486;3.674;2022-12-05T18:05:04;19.33;;;11.57;;
71726;SDS011;59573;43.486;3.674;2022-12-05T18:07:30;15.07;;;11.00;;
71726;SDS011;59573;43.486;3.674;2022-12-05T18:09:56;17.83;;;11.25;;
71726;SDS011;59573;43.486;3.674;2022-12-05T18:12:22;12.55;;;7.88;;
71726;SDS011;59573;43.486;3.674;2022-12-05T18:14:48;15.13;;;6.80;;
71726;SDS011;59573;43.486;3.674;2022-12-05T18:17:13;9.57;;;5.68;;
71726;SDS011;59573;43.486;3.674;2022-12-05T18:19:39;10.13;;;6.20;;
71726;SDS011;59573;43.486;3.674;2022-12-05T18:22:05;11.27;;;7.13;;
71726;SDS011;59573;43.486;3.674;2022-12-05T18:24:30;12.30;;;7.10;;
71726;SDS011;59573;43.486;3.674;2022-12-05T18:26:56;12.93;;;6.82;;
71726;SDS011;59573;43.486;3.674;2022-12-05T18:29:22;10.65;;;6.18;;
71726;SDS011;59573;43.486;3.674;2022-12-05T18:31:48;11.30;;;7.28;;